Tiempo atmosférico en la estación meteorológica de Olmedo, Depósito de Agua, Valladolid (786 m.)



Fecha
DESCASC
Temp. máxima en grados centígrados (hora)
DESCASC
Temp. mínima en grados centígrados (hora)
DESCASC
Temp. media en grados centígrados
DESCASC
Racha de viento máxima en m/sg (hora)
DESCASC
Velocidad máxima media en intervalos de 10 minutos(hora)
DESCASC
Precipitaciones diarias en mm
DESCASC
Precipitaciones de 00:00 a 06:00 en mm
DESCASC
Precipitaciones de 06:00 a 12:00 en mm
DESCASC
Precipitaciones de 12:00 a 18:00 en mm
DESCASC
Precipitaciones de 18:00 a 24:00 en mm
DESCASC
11-12-2019 8.7 (16:00) 1.9 (23:20) 5.3 11.39 (13:30) 8.06 (15:30) 2 0 2 0 0
08-12-2019 9.8 (16:30) 1.5 (00:00) 5.7 6.67 (18:40) 5 (00:10) 1 0 0 1 0
07-12-2019 11.2 (15:10) -1 (-00:0) 5.1 6.67 (22:30) 5 (23:40) 0 0 0 0 0
06-12-2019 12.1 (16:00) -1.2 (-00:0) 5.5 5 (06:30) 3.33 (06:20) 0 0 0 0 0
05-12-2019 11.1 (14:40) 3.3 (00:00) 7.2 9.17 (12:10) 6.11 (12:10) 0 0 0 0 0
04-12-2019 9.6 (16:30) -1.8 (08:40) 3.9 10.28 (23:30) 6.94 (23:30) 0 0 0 0 0
03-12-2019 7.1 (14:50) -1.1 (-00:0) 3 6.67 (23:00) 5.28 (23:00) 0 0 0 0 0
02-12-2019 9.7 (15:10) 1.6 (00:00) 5.6 13.89 (12:50) 8.33 (12:50) 0.2 0 0.2 0 0
01-12-2019 7.8 (15:50) 3.5 (00:00) 5.7 11.11 (06:10) 5.28 (23:30) 5.4 0.2 4.8 0 0.4
30-11-2019 13.9 (13:00) 4.7 (00:00) 9.3 17.78 (12:40) 13.06 (12:40) 11 0 0 10.8 0.2
29-11-2019 13.9 (14:30) 10.4 (00:00) 12.1 11.67 (00:20) 7.78 (01:30) 13.8 0 2.2 0 11.6
28-11-2019 12.4 (13:10) 7.4 (07:30) 9.9 16.11 (18:30) 10.83 (18:30) 0 0 0 0 0
27-11-2019 12 (13:00) 6.5 (00:00) 9.3 18.06 (14:30) 10.28 (15:10) 0 0 0 0 0
26-11-2019 16.8 (14:30) 7.8 (00:00) 12.3 20.28 (18:30) 13.33 (18:40) 0.2 0 0.2 0 0
25-11-2019 13.1 (14:30) 8.4 (23:50) 10.8 15 (01:40) 10 (01:00) 1.2 1 0 0.2 0
24-11-2019 9.8 (23:59) 2 (00:00) 5.9 12.22 (23:59) 8.89 (23:59) 0.4 0 0 0 0.4
23-11-2019 10.3 (14:50) 3.4 (00:00) 6.9 16.67 (00:10) 11.11 (00:10) 1.4 1.4 0 0 0
22-11-2019 13.5 (15:10) 5.3 (00:00) 9.4 18.06 (23:00) 12.22 (15:10) 7.8 0.4 2.8 3.8 0.8
21-11-2019 9.3 (14:30) 3.3 (00:00) 6.3 13.06 (11:30) 6.67 (11:30) 3.2 0.2 2.2 0.8 0
20-11-2019 6.8 (14:50) 2.8 (05:10) 4.8 6.67 (22:10) 4.17 (22:10) 5.2 0 0.4 4.8 0
19-11-2019 8.3 (14:30) -0.9 (-00:0) 3.7 4.72 (01:30) 3.89 (01:30) 0 0 0 0 0
18-11-2019 8.7 (16:10) -0.6 (-00:0) 4 5.28 (02:00) 3.33 (02:00) 0 0 0 0 0
17-11-2019 10.6 (15:50) 2.2 (00:00) 6.4 11.11 (15:50) 6.94 (10:00) 3.4 0 2.8 0.6 0
16-11-2019 7.8 (15:00) -1.9 (-00:0) 3 9.17 (16:40) 6.67 (16:50) 0 0 0 0 0
15-11-2019 7.6 (16:00) 0.7 (00:00) 4.1 11.39 (00:10) 6.67 (13:30) 0.2 0.2 0 0 0

Gráficas

Temp. máximas Temp. mínimas Temp. medias Precipitaciones Rachas de viento máximas Velocidades máximas media en intervalos de 10 minutos

Datos horarios

Fecha y hora oficial Temperatura (ºC) Velocidad del viento (km/h) Dirección del viento Racha (km/h) Dirección de racha Precipitación (mm) Presión (hPa) Tendencia (hPa) Humedad (%)
2019-12-14 23:00:00 8.6 24 Sudoeste 30 Sudoeste 0 -- -- 85
2019-12-14 22:00:00 8.5 22 Sudoeste 35 Sudoeste 0 -- -- 85
2019-12-14 21:00:00 8.5 24 Sudoeste 35 Sudoeste 0 -- -- 83
2019-12-14 20:00:00 9 19 Sudoeste 30 Sudoeste 0 -- -- 82
2019-12-14 19:00:00 9.4 19 Sudoeste 28 Sudoeste 0 -- -- 84
2019-12-14 18:00:00 9.3 12 Oeste 24 Oeste 0 -- -- 87
2019-12-14 17:00:00 9.8 15 Oeste 26 Sudoeste 0 -- -- 88
2019-12-14 16:00:00 10.4 14 Oeste 33 Oeste 0 -- -- 81
2019-12-14 15:00:00 11.1 24 Sudoeste 36 Sudoeste 0 -- -- 77
2019-12-14 14:00:00 10.9 25 Sudoeste 37 Sudoeste 0 -- -- 78
2019-12-14 13:00:00 9.8 25 Sudoeste 37 Sudoeste 0 -- -- 83
2019-12-14 12:00:00 9.7 21 Sudoeste 31 Sudoeste 0 -- -- 83
2019-12-14 11:00:00 9 21 Sudoeste 32 Sudoeste 0 -- -- 84
2019-12-14 10:00:00 8.3 18 Sudoeste 29 Sudoeste 0 -- -- 84
2019-12-14 09:00:00 8.2 18 Sudoeste 30 Sudoeste 0 -- -- 83
2019-12-14 08:00:00 8.3 25 Sudoeste 36 Oeste 0 -- -- 81
2019-12-14 07:00:00 8.3 24 Sudoeste 33 Sudoeste 0 -- -- 82
2019-12-14 06:00:00 8.2 21 Sudoeste 31 Sudoeste 0 -- -- 84
2019-12-14 05:00:00 8.3 22 Sudoeste 34 Oeste 0 -- -- 84
2019-12-14 04:00:00 8.2 23 Sudoeste 37 Sudoeste 0 -- -- 87
2019-12-14 03:00:00 8.2 22 Oeste 39 Sudoeste 0 -- -- 88
2019-12-14 02:00:00 8.5 26 Oeste 41 Oeste 0 -- -- 88
2019-12-14 01:00:00 8.3 23 Sudoeste 39 Oeste 0 -- -- 91
2019-12-14 00:00:00 8.6 17 Oeste 38 Oeste 0 -- -- 90
2019-12-13 23:00:00 9.4 23 Sudoeste 46 Oeste 0 -- -- 90
2019-12-13 22:00:00 9.4 26 Sudoeste 41 Sudoeste 0 -- -- 90
2019-12-13 21:00:00 9.8 28 Oeste 46 Oeste 0 -- -- 89
2019-12-13 20:00:00 9.8 23 Sudoeste 41 Oeste 0 -- -- 89
2019-12-13 19:00:00 10.1 25 Sudoeste 41 Sudoeste 0 -- -- 89
2019-12-13 18:00:00 10.4 26 Oeste 43 Oeste 0 -- -- 87
2019-12-13 17:00:00 11.8 24 Oeste 44 Oeste 0 -- -- 84
2019-12-13 16:00:00 12.4 26 Oeste 52 Oeste 0 -- -- 82
2019-12-13 15:00:00 12.3 29 Oeste 62 Noroeste 0 -- -- 82
2019-12-13 14:00:00 11.9 27 Oeste 47 Oeste 0 -- -- 85
2019-12-13 13:00:00 11.8 27 Oeste 50 Oeste 0 -- -- 84
2019-12-13 12:00:00 11.5 33 Oeste 58 Oeste 0 -- -- 83
2019-12-13 11:00:00 10.7 33 Oeste 50 Oeste 0 -- -- 84
2019-12-13 10:00:00 9.7 29 Oeste 53 Oeste 0 -- -- 87
2019-12-13 09:00:00 8.8 33 Oeste 54 Sudoeste 0 -- -- 87
2019-12-13 08:00:00 8.9 28 Oeste 45 Oeste 0 -- -- 88
2019-12-13 07:00:00 9.5 31 Oeste 53 Oeste 0 -- -- 88
2019-12-13 06:00:00 9.7 38 Sudoeste 53 Sudoeste 0 -- -- 90
2019-12-13 05:00:00 9.9 33 Oeste 54 Oeste 0 -- -- 91
2019-12-13 04:00:00 10.2 30 Oeste 52 Oeste 0 -- -- 90
2019-12-13 03:00:00 10.6 34 Oeste 53 Sudoeste 0 -- -- 90
2019-12-13 02:00:00 10.5 29 Oeste 49 Oeste 0 -- -- 90
2019-12-13 01:00:00 10.5 34 Oeste 51 Sudoeste 0 -- -- 91
2019-12-13 00:00:00 10.2 28 Oeste 45 Oeste 0 -- -- 92
2019-12-12 23:00:00 9.9 28 Oeste 47 Sudoeste 0 -- -- 93
2019-12-12 22:00:00 9.7 29 Oeste 50 Oeste 0 -- -- 92
2019-12-12 21:00:00 9.7 35 Oeste 54 Oeste 0 -- -- 92
2019-12-12 20:00:00 9.2 32 Oeste 56 Oeste 0 -- -- 92
2019-12-12 19:00:00 8.7 35 Oeste 57 Oeste 0 -- -- 92
2019-12-12 18:00:00 8.1 35 Oeste 65 Sudoeste 0 -- -- 92
2019-12-12 17:00:00 7.6 36 Oeste 57 Sudoeste 0 -- -- 92
2019-12-12 16:00:00 7.2 35 Oeste 59 Sudoeste 0 -- -- 93
2019-12-12 15:00:00 7.6 36 Oeste 56 Oeste 0 -- -- 88
2019-12-12 14:00:00 7.4 35 Oeste 54 Sudoeste 0 -- -- 85
2019-12-12 13:00:00 7.2 31 Oeste 54 Sudoeste 0 -- -- 87
2019-12-12 12:00:00 6.3 28 Oeste 49 Sudoeste 0.2 -- -- 90
2019-12-12 11:00:00 6.1 31 Sudoeste 48 Sudoeste 0 -- -- 89
2019-12-12 10:00:00 5.6 30 Sudoeste 43 Sudoeste 0 -- -- 91
2019-12-12 09:00:00 5 27 Sudoeste 41 Sudoeste 0 -- -- 93
2019-12-12 08:00:00 4.4 28 Sudoeste 39 Sudoeste 0 -- -- 95
2019-12-12 07:00:00 3.9 23 Sudoeste 44 Sudoeste 0 -- -- 94
2019-12-12 06:00:00 3.6 27 Sudoeste 37 Sudoeste 0 -- -- 95
2019-12-12 05:00:00 3.5 24 Oeste 37 Oeste 0 -- -- 95
2019-12-12 04:00:00 3.3 21 Sudoeste 32 Oeste 0 -- -- 95
2019-12-12 03:00:00 2.9 24 Sudoeste 32 Sudoeste 0 -- -- 95
2019-12-12 02:00:00 2.8 18 Sudoeste 28 Sudoeste 0 -- -- 95
2019-12-12 01:00:00 2.3 16 Sudoeste 25 Sudoeste 0 -- -- 94
2019-12-12 00:00:00 1.9 13 Sudoeste 21 Sudoeste 0 -- -- 91
2019-12-11 23:00:00 2.1 15 Sudoeste 23 Sudoeste 0 -- -- 90
2019-12-11 22:00:00 2.5 15 Sudoeste 27 Oeste 0 -- -- 88
2019-12-11 21:00:00 3.2 19 Oeste 27 Oeste 0 -- -- 86
2019-12-11 20:00:00 4 20 Oeste 30 Oeste 0 -- -- 82
2019-12-11 19:00:00 5.2 17 Oeste 30 Oeste 0 -- -- 77
2019-12-11 18:00:00 6.4 19 Oeste 33 Oeste 0 -- -- 70
2019-12-11 17:00:00 7.9 16 Oeste 29 Oeste 0 -- -- 70
2019-12-11 16:00:00 8.7 20 Noroeste 40 Noroeste 0 -- -- 59
2019-12-11 15:00:00 8.6 25 Noroeste 40 Noroeste 0 -- -- 60
2019-12-11 14:00:00 7.8 25 Noroeste 41 Noroeste 0 -- -- 73
2019-12-11 13:00:00 7 26 Noroeste 38 Noroeste 0 -- -- 82
2019-12-11 12:00:00 6.5 19 Noroeste 35 Noroeste 0 -- -- 90
2019-12-11 11:00:00 5.7 22 Noroeste 32 Noroeste 0 -- -- 97
2019-12-11 10:00:00 4.1 12 Oeste 21 Oeste 0.2 -- -- 97
2019-12-11 09:00:00 3.4 14 Oeste 25 Oeste 0.4 -- -- 95
2019-12-11 08:00:00 3.9 12 Oeste 21 Oeste 1.4 -- -- 87
2019-12-11 07:00:00 4.7 11 Sudoeste 18 Oeste 0 -- -- 75
2019-12-11 06:00:00 4.3 10 Sudoeste 14 Sudoeste 0 -- -- 75
2019-12-11 05:00:00 5 10 Sudoeste 19 Sudoeste 0 -- -- 74
2019-12-11 04:00:00 5.3 13 Sudoeste 21 Sudoeste 0 -- -- 73
2019-12-11 03:00:00 5 11 Sudoeste 18 Sudoeste 0 -- -- 78
2019-12-11 02:00:00 4.8 14 Sudoeste 19 Sudoeste 0 -- -- 81
2019-12-11 01:00:00 4.8 16 Sudoeste 21 Sudoeste 0 -- -- 82
2019-12-11 00:00:00 4.9 12 Sur 18 Sur 0 -- -- 89
2019-12-10 23:00:00 3.9 13 Sur 19 Sudeste 0 -- -- 94
2019-12-10 22:00:00 3.4 10 Sudeste 14 Sudeste 0 -- -- 96
2019-12-10 21:00:00 3.6 0 Calma 5 Noroeste 0 -- -- 95
2019-12-10 20:00:00 4.7 0 Calma 7 Sur 0 -- -- 95
2019-12-10 19:00:00 5.2 4 Sudeste 5 Sudeste 0 -- -- 93
2019-12-10 18:00:00 6.3 0 Calma 2 Sur 0 -- -- 91
2019-12-10 17:00:00 6.9 0 Calma 4 Oeste 0 -- -- 89
2019-12-10 16:00:00 6.7 2 Sudoeste 8 Oeste 0 -- -- 88
2019-12-10 15:00:00 6.5 5 Oeste 9 Noroeste 0 -- -- 87
2019-12-10 14:00:00 6 4 Noroeste 8 Noroeste 0 -- -- 94
2019-12-10 13:00:00 3.8 3 Norte 5 Noroeste 0 -- -- 100
2019-12-10 12:00:00 1.8 3 Este 5 Sudeste 0 -- -- 100
2019-12-10 11:00:00 -0.5 0 Calma -- -- 0.2 -- -- 100
2019-12-10 10:00:00 -1.8 0 Calma -- -- 0 -- -- 99
2019-12-10 09:00:00 -2.4 0 Calma -- -- 0 -- -- 99
2019-12-10 08:00:00 -2.4 0 Calma -- -- 0 -- -- 99
2019-12-10 07:00:00 -2.6 0 Calma 11 Sudeste 0 -- -- 99
2019-12-10 06:00:00 -2.1 6 Este 8 Sudeste 0 -- -- 98
2019-12-10 05:00:00 -2.1 0 Calma 13 Sudeste 0 -- -- 98
2019-12-10 04:00:00 -1.8 10 Sudeste 16 Sudeste 0 -- -- 98
2019-12-10 03:00:00 -0.5 6 Este 8 Este 0 -- -- 99
2019-12-10 02:00:00 -0.9 6 Sudeste 13 Sudeste 0 -- -- 97
2019-12-10 01:00:00 0.8 5 Sudeste 6 Sudeste 0 -- -- 97
2019-12-10 00:00:00 1.3 3 Este 7 Este 0 -- -- 96
2019-12-09 23:00:00 2.6 4 Sudeste 12 Sudeste 0 -- -- 96
2019-12-09 22:00:00 3.4 5 Sudeste 10 Sudeste 0 -- -- 95
2019-12-09 21:00:00 4.4 6 Sudeste 9 Este 0 -- -- 95
2019-12-09 20:00:00 5.5 4 Este 8 Este 0 -- -- 93
2019-12-09 19:00:00 5.8 5 Este 9 Este 0 -- -- 93
2019-12-09 18:00:00 6.8 7 Este 10 Este 0 -- -- 91
2019-12-09 17:00:00 8 6 Este 10 Este 0 -- -- 89
2019-12-09 16:00:00 9.1 2 Este 8 Nordeste 0 -- -- 83
2019-12-09 15:00:00 9.5 6 Oeste 17 Oeste 0 -- -- 80
2019-12-09 14:00:00 8.8 9 Oeste 17 Oeste 0 -- -- 92
2019-12-09 13:00:00 6.2 9 Sudoeste 19 Sudoeste 0 -- -- 100
2019-12-09 12:00:00 4.9 10 Oeste 22 Sudoeste 0 -- -- 100
2019-12-09 11:00:00 4.1 13 Sudoeste 29 Sudoeste 0 -- -- 99
2019-12-09 10:00:00 3.5 15 Sudoeste 21 Sudoeste 0 -- -- 100
2019-12-09 09:00:00 3.5 10 Oeste 17 Oeste 0 -- -- 99
2019-12-09 08:00:00 4.6 8 Oeste 15 Oeste 0 -- -- 99
2019-12-09 07:00:00 5.4 4 Oeste 9 Oeste 0 -- -- 99
2019-12-09 06:00:00 5.7 4 Oeste 17 Sudoeste 0 -- -- 99
2019-12-09 05:00:00 5.8 11 Sudoeste 17 Oeste 0 -- -- 98
2019-12-09 04:00:00 5.2 10 Sudoeste 13 Sudoeste 0 -- -- 99
2019-12-09 03:00:00 5.4 10 Sudoeste 19 Sudoeste 0 -- -- 98
2019-12-09 02:00:00 7.1 4 Oeste 12 Oeste 0 -- -- 98
2019-12-09 01:00:00 8.1 5 Oeste 15 Oeste 0 -- -- 98
2019-12-09 00:00:00 8.4 4 Oeste 11 Oeste 0 -- -- 98
2019-12-08 23:00:00 8.8 5 Noroeste 18 Noroeste 0 -- -- 98
2019-12-08 22:00:00 9.3 10 Noroeste 21 Noroeste 0 -- -- 98
2019-12-08 21:00:00 9.6 14 Noroeste 22 Oeste 0 -- -- 98
2019-12-08 20:00:00 9.6 11 Oeste 19 Oeste 0 -- -- 98
2019-12-08 19:00:00 9.5 11 Oeste 24 Oeste 0 -- -- 98
2019-12-08 18:00:00 9.6 12 Oeste 19 Oeste 0.2 -- -- 97
2019-12-08 17:00:00 9.7 10 Oeste 22 Sudoeste 0 -- -- 97
2019-12-08 16:00:00 9.6 10 Oeste 17 Oeste 0.2 -- -- 97
2019-12-08 15:00:00 9.2 9 Oeste 17 Oeste 0.4 -- -- 96
2019-12-08 14:00:00 8.8 12 Oeste 18 Oeste 0.2 -- -- 94
2019-12-08 13:00:00 9.1 7 Oeste 14 Oeste 0 -- -- 87
2019-12-08 12:00:00 8 5 Oeste 12 Sudoeste 0 -- -- 89
2019-12-08 11:00:00 5.9 5 Sur 15 Sudoeste 0 -- -- 97
2019-12-08 10:00:00 4.4 11 Sudoeste 17 Sur 0 -- -- 94
2019-12-08 09:00:00 3.1 11 Sur 14 Sur 0 -- -- 95
2019-12-08 08:00:00 1.8 12 Sur 15 Sur 0 -- -- 96
2019-12-08 07:00:00 1.8 14 Sudoeste 22 Sudoeste 0 -- -- 96
2019-12-08 06:00:00 1.7 13 Sur 16 Sur 0 -- -- 96
2019-12-08 05:00:00 1.5 13 Sur 15 Sur 0 -- -- 95
2019-12-08 04:00:00 1.6 11 Sudoeste 13 Sudoeste 0 -- -- 96
2019-12-08 03:00:00 2.1 9 Sudoeste 18 Sur 0 -- -- 94
2019-12-08 02:00:00 3 14 Sur 21 Sur 0 -- -- 93
2019-12-08 01:00:00 3.7 13 Sur 21 Sur 0 -- -- 94
2019-12-08 00:00:00 4.5 17 Sur 20 Sur 0 -- -- 94
2019-12-07 23:00:00 4.2 15 Sur 24 Sur 0 -- -- 95
2019-12-07 22:00:00 4.1 12 Sur 18 Sur 0 -- -- 94
2019-12-07 21:00:00 4.7 9 Sur 12 Sur 0 -- -- 93
2019-12-07 20:00:00 5.6 9 Sur 10 Sur 0 -- -- 87
2019-12-07 19:00:00 6.9 0 Calma 4 Noroeste 0 -- -- 82
2019-12-07 18:00:00 8.8 2 Norte 9 Norte 0 -- -- 80
2019-12-07 17:00:00 10.4 5 Norte 9 Norte 0 -- -- 75
2019-12-07 16:00:00 11.2 5 Norte 11 Noroeste 0 -- -- 72
2019-12-07 15:00:00 11.1 4 Noroeste 9 Noroeste 0 -- -- 71
2019-12-07 14:00:00 10.5 3 Norte 8 Noroeste 0 -- -- 76
2019-12-07 13:00:00 9.4 2 Sudeste 10 Sudeste 0 -- -- 77
2019-12-07 12:00:00 6.6 4 Este 8 Este 0 -- -- 85
2019-12-07 11:00:00 3.9 5 Sudeste 10 Sudeste 0 -- -- 92
2019-12-07 10:00:00 1.8 7 Sudeste 12 Sudeste 0 -- -- 97
2019-12-07 09:00:00 -0.4 10 Sudeste 13 Sudeste 0 -- -- 97
2019-12-07 08:00:00 -1 4 Este 9 Sudeste 0 -- -- 97
2019-12-07 07:00:00 -0.6 2 Sudeste 4 Sudeste 0 -- -- 97
2019-12-07 06:00:00 -0.2 0 Calma 14 Sur 0 -- -- 97
2019-12-07 05:00:00 0.2 13 Sur 14 Sur 0 -- -- 97
2019-12-07 04:00:00 0 11 Sudeste 13 Sudeste 0 -- -- 97
2019-12-07 03:00:00 0.5 4 Este 13 Este 0 -- -- 96
2019-12-07 02:00:00 1.4 8 Sudeste 9 Sudeste 0 -- -- 96
2019-12-07 01:00:00 2.8 4 Sur 9 Sur 0 -- -- 94
2019-12-07 00:00:00 3 8 Sur 13 Sur 0 -- -- 95
2019-12-06 23:00:00 3 10 Sur 16 Sur 0 -- -- 93
2019-12-06 22:00:00 4.6 4 Sudeste 7 Sur 0 -- -- 87
2019-12-06 21:00:00 6.2 0 Calma 5 Norte 0 -- -- 85
2019-12-06 20:00:00 6.8 3 Norte 4 Este 0 -- -- 82
2019-12-06 19:00:00 8 3 Nordeste 5 Norte 0 -- -- 79
2019-12-06 18:00:00 9.4 3 Norte 7 Noroeste 0 -- -- 75
2019-12-06 17:00:00 11.2 4 Norte 7 Norte 0 -- -- 68
2019-12-06 16:00:00 12.1 0 Calma 6 Noroeste 0 -- -- 62
2019-12-06 15:00:00 11.6 0 Calma 6 Norte 0 -- -- 66
2019-12-06 14:00:00 10.6 2 Nordeste 6 Nordeste 0 -- -- 70
2019-12-06 13:00:00 8.9 3 Norte 5 Norte 0 -- -- 77
2019-12-06 12:00:00 6.8 2 Este 7 Sudeste 0 -- -- 85
2019-12-06 11:00:00 3.1 3 Este 14 Sudeste 0 -- -- 93
2019-12-06 10:00:00 1.3 3 Sudeste 5 Sudeste 0 -- -- 99
2019-12-06 09:00:00 -1.1 3 Noroeste 8 Sudeste 0 -- -- 97
2019-12-06 08:00:00 -1 3 Sudeste 8 Este 0 -- -- 96
2019-12-06 07:00:00 -0.6 6 Este 18 Sudeste 0 -- -- 97
2019-12-06 06:00:00 0.4 8 Sudeste 12 Sudeste 0 -- -- 96
2019-12-06 05:00:00 1 9 Sudeste 13 Sudeste 0 -- -- 97
2019-12-06 04:00:00 1 6 Este 8 Este 0 -- -- 96
2019-12-06 03:00:00 1.4 0 Calma 5 Norte 0 -- -- 94
2019-12-06 02:00:00 1.8 4 Norte 9 Norte 0 -- -- 95
2019-12-06 01:00:00 2.2 5 Norte 14 Sudeste 0 -- -- 92
2019-12-06 00:00:00 3.4 12 Sudeste 15 Este 0 -- -- 92
2019-12-05 23:00:00 4.1 9 Sudeste 12 Este 0 -- -- 89
2019-12-05 22:00:00 4.7 4 Norte 10 Norte 0 -- -- 86
2019-12-05 21:00:00 5.3 5 Norte 15 Nordeste 0 -- -- 85
2019-12-05 20:00:00 6.4 10 Nordeste 15 Norte 0 -- -- 83
2019-12-05 19:00:00 7.2 8 Norte 19 Norte 0 -- -- 80
2019-12-05 18:00:00 8.9 10 Nordeste 20 Norte 0 -- -- 75
2019-12-05 17:00:00 10.8 10 Nordeste 19 Nordeste 0 -- -- 69
2019-12-05 16:00:00 10.7 14 Nordeste 24 Nordeste 0 -- -- 68
2019-12-05 15:00:00 10.5 14 Nordeste 27 Nordeste 0 -- -- 67
2019-12-05 14:00:00 10.1 16 Nordeste 28 Nordeste 0 -- -- 69
2019-12-05 13:00:00 9.8 20 Nordeste 33 Este 0 -- -- 70
2019-12-05 12:00:00 9.1 16 Nordeste 28 Este 0 -- -- 73
2019-12-05 11:00:00 6.8 7 Nordeste 15 Nordeste 0 -- -- 85
2019-12-05 10:00:00 4.4 5 Nordeste 9 Nordeste 0 -- -- 92
2019-12-05 09:00:00 3.6 6 Este 9 Este 0 -- -- 93
2019-12-05 08:00:00 3.7 2 Nordeste 8 Este 0 -- -- 91
2019-12-05 07:00:00 4.2 7 Este 16 Nordeste 0 -- -- 89
2019-12-05 06:00:00 4.6 12 Nordeste 24 Nordeste 0 -- -- 87
2019-12-05 05:00:00 4.9 14 Nordeste 23 Nordeste 0 -- -- 86
2019-12-05 04:00:00 5.1 12 Nordeste 22 Nordeste 0 -- -- 85
2019-12-05 03:00:00 5.7 17 Nordeste 33 Nordeste 0 -- -- 84
2019-12-05 02:00:00 4.9 10 Norte 19 Nordeste 0 -- -- 84
2019-12-05 01:00:00 4 9 Nordeste 25 Nordeste 0 -- -- 83
2019-12-05 00:00:00 4.4 12 Nordeste 37 Nordeste 0 -- -- 79
2019-12-04 23:00:00 5.2 12 Nordeste 20 Nordeste 0 -- -- 76
2019-12-04 22:00:00 5.6 8 Nordeste 13 Nordeste 0 -- -- 80
2019-12-04 21:00:00 6.4 11 Nordeste 18 Nordeste 0 -- -- 78
2019-12-04 20:00:00 4.4 3 Sur 12 Sur 0 -- -- 90
2019-12-04 19:00:00 6.3 7 Sur 12 Sur 0 -- -- 84
2019-12-04 18:00:00 7.9 3 Norte 14 Nordeste 0 -- -- 79
2019-12-04 17:00:00 8.9 10 Nordeste 21 Nordeste 0 -- -- 75
2019-12-04 16:00:00 8.8 7 Nordeste 13 Nordeste 0 -- -- 77
2019-12-04 15:00:00 7.3 7 Noroeste 10 Noroeste 0 -- -- 84
2019-12-04 14:00:00 5.9 3 Noroeste 11 Norte 0 -- -- 84
2019-12-04 13:00:00 4.6 2 Norte 12 Oeste 0 -- -- 86
2019-12-04 12:00:00 1.6 4 Oeste 6 Oeste 0 -- -- 95
2019-12-04 11:00:00 0.2 3 Oeste 8 Sudoeste 0 -- -- 96
2019-12-04 10:00:00 -0.3 0 Calma 5 Oeste 0 -- -- 96
2019-12-04 09:00:00 -1.8 3 Oeste 7 Sudoeste 0 -- -- 96
2019-12-04 08:00:00 -1.5 3 Noroeste 8 Norte 0 -- -- 96
2019-12-04 07:00:00 -1.3 4 Noroeste 8 Noroeste 0 -- -- 95
2019-12-04 06:00:00 -0.9 0 Calma 6 Nordeste 0 -- -- 94
2019-12-04 05:00:00 -0.4 5 Nordeste 10 Este 0 -- -- 94
2019-12-04 04:00:00 -0.2 6 Este 13 Este 0 -- -- 93
2019-12-04 03:00:00 0.2 7 Nordeste 15 Este 0 -- -- 92
2019-12-04 02:00:00 0.5 13 Este 22 Sudeste 0 -- -- 93
2019-12-04 01:00:00 0.9 13 Este 22 Este 0 -- -- 91
2019-12-04 00:00:00 0.7 16 Este 24 Este 0 -- -- 93
2019-12-03 23:00:00 0.2 19 Este 24 Este 0 -- -- 91
2019-12-03 22:00:00 0.7 12 Este 18 Este 0 -- -- 91
2019-12-03 21:00:00 1.4 12 Este 19 Este 0 -- -- 87
2019-12-03 20:00:00 2.9 5 Nordeste 8 Nordeste 0 -- -- 81
2019-12-03 19:00:00 3.7 6 Este 12 Este 0 -- -- 78
2019-12-03 18:00:00 5 8 Nordeste 14 Este 0 -- -- 74
2019-12-03 17:00:00 6.5 9 Nordeste 18 Nordeste 0 -- -- 65
2019-12-03 16:00:00 6.9 10 Nordeste 16 Nordeste 0 -- -- 64
2019-12-03 15:00:00 7.1 10 Nordeste 18 Nordeste 0 -- -- 63
2019-12-03 14:00:00 6.3 7 Nordeste 18 Nordeste 0 -- -- 66
2019-12-03 13:00:00 5.4 5 Este 13 Sudeste 0 -- -- 69
2019-12-03 12:00:00 3.9 10 Este 17 Este 0 -- -- 76
2019-12-03 11:00:00 2.3 9 Nordeste 14 Nordeste 0 -- -- 83
2019-12-03 10:00:00 1.6 4 Este 7 Este 0 -- -- 87
2019-12-03 09:00:00 -0.4 3 Sudeste 6 Este 0 -- -- 92
2019-12-03 08:00:00 -1 4 Este 6 Este 0 -- -- 92
2019-12-03 07:00:00 -0.3 4 Este 13 Este 0 -- -- 90
2019-12-03 06:00:00 0.2 6 Este 13 Nordeste 0 -- -- 89
2019-12-03 05:00:00 0.1 2 Nordeste 6 Nordeste 0 -- -- 90
2019-12-03 04:00:00 0.7 5 Nordeste 12 Nordeste 0 -- -- 87
2019-12-03 03:00:00 1.1 7 Nordeste 15 Nordeste 0 -- -- 87
2019-12-03 02:00:00 1.4 9 Nordeste 20 Nordeste 0 -- -- 85
2019-12-03 01:00:00 1.5 11 Nordeste 21 Nordeste 0 -- -- 83
2019-12-03 00:00:00 1.6 10 Nordeste 23 Nordeste 0 -- -- 82
2019-12-02 23:00:00 2.1 17 Nordeste 28 Nordeste 0 -- -- 80
2019-12-02 22:00:00 2.9 18 Nordeste 37 Norte 0 -- -- 79
2019-12-02 21:00:00 3.7 18 Nordeste 36 Nordeste 0 -- -- 79
2019-12-02 20:00:00 4.4 19 Nordeste 38 Nordeste 0 -- -- 78
2019-12-02 19:00:00 5.3 18 Nordeste 43 Nordeste 0 -- -- 79
2019-12-02 18:00:00 6.4 18 Nordeste 44 Nordeste 0 -- -- 77
2019-12-02 17:00:00 8.1 26 Nordeste 45 Nordeste 0 -- -- 73
2019-12-02 16:00:00 8.8 22 Nordeste 40 Nordeste 0 -- -- 71
2019-12-02 15:00:00 9.6 27 Nordeste 41 Nordeste 0 -- -- 65
2019-12-02 14:00:00 9.3 28 Nordeste 43 Nordeste 0 -- -- 67
2019-12-02 13:00:00 8.8 27 Nordeste 50 Nordeste 0 -- -- 68
2019-12-02 12:00:00 8.3 26 Nordeste 42 Nordeste 0 -- -- 72
2019-12-02 11:00:00 7.2 20 Nordeste 40 Nordeste 0.2 -- -- 78
2019-12-02 10:00:00 5.5 18 Nordeste 26 Nordeste 0 -- -- 84
2019-12-02 09:00:00 4.1 11 Nordeste 21 Nordeste 0 -- -- 91
2019-12-02 08:00:00 4 14 Nordeste 27 Nordeste 0 -- -- 91
2019-12-02 07:00:00 4.2 18 Nordeste 32 Nordeste 0 -- -- 90
2019-12-02 06:00:00 4 15 Nordeste 30 Nordeste 0 -- -- 91
2019-12-02 05:00:00 3.9 12 Nordeste 22 Nordeste 0 -- -- 92
2019-12-02 04:00:00 4.1 10 Nordeste 26 Nordeste 0 -- -- 92
2019-12-02 03:00:00 4.6 15 Nordeste 23 Nordeste 0 -- -- 91
2019-12-02 02:00:00 5 14 Nordeste 31 Nordeste 0 -- -- 90
2019-12-02 01:00:00 5.8 17 Nordeste 29 Norte 0 -- -- 88
2019-12-02 00:00:00 6 16 Nordeste 29 Nordeste 0 -- -- 89
2019-12-01 23:00:00 5.9 17 Nordeste 25 Nordeste 0 -- -- 91
2019-12-01 22:00:00 6 14 Nordeste 21 Nordeste 0 -- -- 96
2019-12-01 21:00:00 6 9 Norte 17 Norte 0.2 -- -- 95
2019-12-01 20:00:00 6 10 Nordeste 21 Nordeste 0.2 -- -- 93
2019-12-01 19:00:00 6.3 11 Nordeste 18 Este 0 -- -- 92
2019-12-01 18:00:00 6.7 14 Nordeste 24 Nordeste 0 -- -- 92
2019-12-01 17:00:00 7.4 14 Nordeste 22 Nordeste 0 -- -- 91
2019-12-01 16:00:00 7.8 14 Nordeste 19 Nordeste 0 -- -- 92
2019-12-01 15:00:00 7.5 10 Este 23 Este 0 -- -- 89
2019-12-01 14:00:00 7.7 14 Sudeste 21 Sudeste 0 -- -- 89
2019-12-01 13:00:00 6.9 14 Sur 20 Sur 0 -- -- 92
2019-12-01 12:00:00 6.5 14 Sur 20 Sur 0.4 -- -- 95
2019-12-01 11:00:00 5.8 12 Sudeste 15 Sudeste 0.2 -- -- 96
2019-12-01 10:00:00 5.2 9 Sudeste 16 Sudeste 1.6 -- -- 96
2019-12-01 09:00:00 5.1 13 Sudeste 20 Sudeste 1.8 -- -- 93
2019-12-01 08:00:00 5.1 14 Sudeste 25 Sur 0.6 -- -- 94
2019-12-01 07:00:00 4.9 17 Sur 40 Sudoeste 0.2 -- -- 91
2019-12-01 06:00:00 4.9 17 Sur 25 Sur 0.2 -- -- 90
2019-12-01 05:00:00 4.3 18 Sur 23 Sur 0 -- -- 91
2019-12-01 04:00:00 3.9 19 Sur 22 Sur 0 -- -- 93
2019-12-01 03:00:00 3.7 13 Sur 16 Sur 0 -- -- 95
2019-12-01 02:00:00 4.5 14 Sudoeste 20 Sudoeste 0 -- -- 95
2019-12-01 01:00:00 5.2 12 Sudoeste 16 Sudoeste 0 -- -- 98
2019-12-01 00:00:00 4.7 11 Sudoeste 17 Sudoeste 0 -- -- 97
2019-11-30 23:00:00 5 13 Sudoeste 19 Sudoeste 0 -- -- 97
2019-11-30 22:00:00 5.4 14 Sudoeste 16 Sudoeste 0 -- -- 96
2019-11-30 21:00:00 6.1 10 Sudoeste 20 Sudoeste 0 -- -- 95
2019-11-30 20:00:00 7 15 Sudoeste 23 Sudoeste 0 -- -- 93
2019-11-30 19:00:00 7.1 12 Sudoeste 21 Sudoeste 0.2 -- -- 94
2019-11-30 18:00:00 7.2 10 Oeste 34 Noroeste 0.2 -- -- 93
2019-11-30 17:00:00 7.5 22 Noroeste 35 Noroeste 2.8 -- -- 96
2019-11-30 16:00:00 9 14 Oeste 39 Noroeste 3.4 -- -- 96
2019-11-30 15:00:00 10.6 31 Oeste 50 Oeste 4.2 -- -- 93
2019-11-30 14:00:00 12.9 31 Sudoeste 55 Sudoeste 0.2 -- -- 87
2019-11-30 13:00:00 13.9 39 Sudoeste 64 Sudoeste 0 -- -- 81
2019-11-30 12:00:00 13.2 40 Sudoeste 57 Sudoeste 0 -- -- 83
2019-11-30 11:00:00 12.7 35 Sudoeste 49 Sudoeste 0 -- -- 86
2019-11-30 10:00:00 11.5 26 Sudoeste 37 Sudoeste 0 -- -- 90
2019-11-30 09:00:00 10.6 27 Sudoeste 34 Sudoeste 0 -- -- 92
2019-11-30 08:00:00 10.8 19 Sudoeste 37 Sudoeste 0 -- -- 93
2019-11-30 07:00:00 11 28 Sudoeste 38 Sudoeste 0 -- -- 94
2019-11-30 06:00:00 10.4 20 Sudoeste 30 Sudoeste 0 -- -- 96
2019-11-30 05:00:00 11 20 Sudoeste 26 Sudoeste 0 -- -- 98
2019-11-30 04:00:00 10.7 18 Sudoeste 24 Sudoeste 0 -- -- 98
2019-11-30 03:00:00 10.9 18 Sudoeste 26 Sudoeste 0 -- -- 98
2019-11-30 02:00:00 11.2 15 Sudoeste 22 Sudoeste 0 -- -- 98
2019-11-30 01:00:00 11.3 14 Sudoeste 19 Sudoeste 0 -- -- 98
2019-11-30 00:00:00 11.2 13 Sudoeste 18 Sudoeste 1.6 -- -- 98
2019-11-29 23:00:00 10.9 9 Sudoeste 13 Sudoeste 9.6 -- -- 97
2019-11-29 22:00:00 11.2 8 Sudoeste 14 Sur 0.4 -- -- 96
2019-11-29 21:00:00 11.1 8 Sur 9 Sur 0 -- -- 95
2019-11-29 20:00:00 11 8 Sur 13 Sudoeste 0 -- -- 95
2019-11-29 19:00:00 10.7 10 Sudoeste 11 Sudoeste 0 -- -- 92
2019-11-29 18:00:00 12 7 Oeste 17 Oeste 0 -- -- 90
2019-11-29 17:00:00 13.5 12 Oeste 22 Oeste 0 -- -- 85
2019-11-29 16:00:00 13.8 15 Oeste 26 Oeste 0 -- -- 83
2019-11-29 15:00:00 13.9 12 Oeste 26 Oeste 0 -- -- 88
2019-11-29 14:00:00 13.6 15 Oeste 29 Oeste 0 -- -- 89
2019-11-29 13:00:00 13.3 9 Oeste 21 Oeste 0 -- -- 90
2019-11-29 12:00:00 12.3 9 Oeste 17 Oeste 0.2 -- -- 98
2019-11-29 11:00:00 11.6 9 Oeste 16 Oeste 0.2 -- -- 98
2019-11-29 10:00:00 11.1 8 Oeste 15 Sudoeste 1.6 -- -- 98
2019-11-29 09:00:00 10.9 10 Sudoeste 22 Oeste 0.2 -- -- 98
2019-11-29 08:00:00 10.9 16 Sudoeste 22 Sudoeste 0 -- -- 97
2019-11-29 07:00:00 10.8 11 Sudoeste 23 Oeste 0 -- -- 97
2019-11-29 06:00:00 10.9 18 Sudoeste 27 Sudoeste 0 -- -- 97
2019-11-29 05:00:00 10.9 16 Oeste 30 Sudoeste 0 -- -- 96
2019-11-29 04:00:00 11 22 Sudoeste 32 Oeste 0 -- -- 95
2019-11-29 03:00:00 11.1 23 Sudoeste 44 Oeste 0 -- -- 93
2019-11-29 02:00:00 11.2 23 Oeste 39 Sudoeste 0 -- -- 92
2019-11-29 01:00:00 11.2 27 Sudoeste 42 Sudoeste 0 -- -- 91
2019-11-29 00:00:00 11.2 28 Sudoeste 45 Sudoeste 0 -- -- 89
2019-11-28 23:00:00 11.3 31 Sudoeste 44 Sudoeste 0 -- -- 86
2019-11-28 22:00:00 11 28 Sudoeste 39 Sudoeste 0 -- -- 86
2019-11-28 21:00:00 10.7 28 Sudoeste 49 Sudoeste 0 -- -- 86
2019-11-28 20:00:00 10.4 31 Sudoeste 46 Sudoeste 0 -- -- 86
2019-11-28 19:00:00 10.6 32 Sudoeste 58 Sudoeste 0 -- -- 84
2019-11-28 18:00:00 11.2 30 Sudoeste 48 Sudoeste 0 -- -- 83
2019-11-28 17:00:00 11.6 31 Sudoeste 43 Sudoeste 0 -- -- 83
2019-11-28 16:00:00 11.9 25 Sudoeste 44 Sudoeste 0 -- -- 77
2019-11-28 15:00:00 11.8 28 Sudoeste 43 Sudoeste 0 -- -- 76
2019-11-28 14:00:00 12 28 Sudoeste 50 Sudoeste 0 -- -- 78
2019-11-28 13:00:00 12.3 33 Sudoeste 48 Sudoeste 0 -- -- 77
2019-11-28 12:00:00 11.3 27 Sudoeste 42 Sudoeste 0 -- -- 82
2019-11-28 11:00:00 11 27 Sudoeste 40 Sudoeste 0 -- -- 82
2019-11-28 10:00:00 9.7 31 Sudoeste 39 Sudoeste 0 -- -- 86
2019-11-28 09:00:00 8.6 26 Sudoeste 36 Sudoeste 0 -- -- 90
2019-11-28 08:00:00 7.8 21 Sudoeste 30 Sudoeste 0 -- -- 93
2019-11-28 07:00:00 7.7 18 Sudoeste 31 Sudoeste 0 -- -- 93
2019-11-28 06:00:00 7.9 27 Sudoeste 35 Sudoeste 0 -- -- 91
2019-11-28 05:00:00 8.4 25 Sudoeste 36 Sudoeste 0 -- -- 91
2019-11-28 04:00:00 8.7 23 Sudoeste 30 Oeste 0 -- -- 90
2019-11-28 03:00:00 8.6 22 Sudoeste 33 Sudoeste 0 -- -- 90
2019-11-28 02:00:00 8.7 19 Oeste 35 Sudoeste 0 -- -- 89
2019-11-28 01:00:00 8.7 24 Sudoeste 32 Sudoeste 0 -- -- 91
2019-11-28 00:00:00 8.8 23 Sudoeste 35 Sudoeste 0 -- -- 88
2019-11-27 23:00:00 8.9 22 Sudoeste 37 Sudoeste 0 -- -- 91
2019-11-27 22:00:00 8.9 23 Sudoeste 33 Sudoeste 0 -- -- 90
2019-11-27 21:00:00 9.2 26 Sudoeste 36 Sudoeste 0 -- -- 88
2019-11-27 20:00:00 9.5 24 Sudoeste 38 Sudoeste 0 -- -- 83
2019-11-27 19:00:00 10 25 Sudoeste 41 Sudoeste 0 -- -- 76
2019-11-27 18:00:00 10.4 22 Oeste 35 Oeste 0 -- -- 74
2019-11-27 17:00:00 10.7 22 Sudoeste 43 Sudoeste 0 -- -- 76
2019-11-27 16:00:00 10.8 27 Sudoeste 51 Sudoeste 0 -- -- 77
2019-11-27 15:00:00 11.2 32 Sudoeste 65 Oeste 0 -- -- 74
2019-11-27 14:00:00 11.7 32 Sudoeste 47 Sudoeste 0 -- -- 70
2019-11-27 06:00:00 -- -- -- -- -- -- -- -- --
2019-11-27 05:00:00 -- -- -- -- -- -- -- -- --
2019-11-27 04:00:00 -- -- -- -- -- -- -- -- --
2019-11-27 03:00:00 -- -- -- -- -- -- -- -- --
2019-11-27 02:00:00 8.3 23 Oeste 37 Oeste 0 -- -- 91
2019-11-27 01:00:00 9 22 Oeste 41 Oeste 0 -- -- 91
2019-11-27 00:00:00 10 28 Oeste 53 Oeste 0 -- -- 88
2019-11-26 23:00:00 11 30 Oeste 64 Sudoeste 0 -- -- 88
2019-11-26 22:00:00 11.7 31 Sudoeste 49 Sudoeste 0 -- -- 83
2019-11-26 21:00:00 11.9 33 Sudoeste 57 Sudoeste 0 -- -- 83
2019-11-26 20:00:00 12.3 31 Sudoeste 47 Sudoeste 0 -- -- 89
2019-11-26 19:00:00 13 38 Sudoeste 73 Sudoeste 0 -- -- 88
2019-11-26 18:00:00 14.4 38 Sudoeste 50 Sudoeste 0 -- -- 78
2019-11-26 17:00:00 15.3 34 Sudoeste 51 Sudoeste 0 -- -- 73
2019-11-26 16:00:00 15.2 39 Sudoeste 55 Sudoeste 0 -- -- 73
2019-11-26 15:00:00 15.6 45 Sudoeste 66 Sudoeste 0 -- -- 71
2019-11-26 14:00:00 15.9 42 Sudoeste 55 Sudoeste 0 -- -- 72
2019-11-26 13:00:00 14.6 38 Sudoeste 53 Sudoeste 0 -- -- 75
2019-11-26 12:00:00 14.8 32 Sudoeste 47 Sudoeste 0 -- -- 79
2019-11-26 11:00:00 13.3 37 Sudoeste 53 Sudoeste 0 -- -- 85
2019-11-26 10:00:00 11.3 23 Sudoeste 33 Sudoeste 0.2 -- -- 94
2019-11-26 09:00:00 10.3 14 Sudoeste 23 Sudoeste 0 -- -- 91
2019-11-26 08:00:00 9.7 13 Sudoeste 23 Sudoeste 0 -- -- 92
2019-11-26 07:00:00 9.5 15 Sudoeste 21 Sudoeste 0 -- -- 89
2019-11-26 06:00:00 9.4 16 Sur 21 Norte 0 -- -- 89
2019-11-26 05:00:00 8.4 13 Sudeste 24 Sur 0 -- -- 94
2019-11-26 04:00:00 7.8 13 Sur 16 Sur 0 -- -- 96
2019-11-26 03:00:00 8 13 Sur 18 Sur 0 -- -- 95
2019-11-26 02:00:00 8.1 14 Sur 18 Sur 0 -- -- 93
2019-11-26 01:00:00 9.2 11 Sur 21 Sudoeste 0 -- -- 91
2019-11-26 00:00:00 8.5 14 Sudoeste 17 Sudoeste 0 -- -- 94
2019-11-25 23:00:00 8.8 12 Sudoeste 18 Sudoeste 0 -- -- 92
2019-11-25 22:00:00 9 11 Sudoeste 19 Sudoeste 0 -- -- 91
2019-11-25 21:00:00 9.8 13 Sudoeste 21 Sudoeste 0 -- -- 88
2019-11-25 20:00:00 10.1 16 Oeste 30 Oeste 0 -- -- 87
2019-11-25 19:00:00 10.3 13 Sudoeste 23 Oeste 0 -- -- 87
2019-11-25 18:00:00 11.3 13 Oeste 27 Noroeste 0 -- -- 82
2019-11-25 17:00:00 12.2 12 Oeste 21 Oeste 0 -- -- 80
2019-11-25 16:00:00 12.8 13 Oeste 28 Oeste 0 -- -- 75
2019-11-25 15:00:00 12.9 17 Oeste 36 Oeste 0 -- -- 75
2019-11-25 14:00:00 13 21 Oeste 39 Oeste 0.2 -- -- 71
2019-11-25 13:00:00 12.9 26 Oeste 39 Sudoeste 0 -- -- 77
2019-11-25 12:00:00 12.3 23 Oeste 37 Oeste 0 -- -- 84
2019-11-25 11:00:00 11.7 19 Oeste 40 Sudoeste 0 -- -- 85
2019-11-25 10:00:00 10.6 21 Sudoeste 31 Sudoeste 0 -- -- 89
2019-11-25 09:00:00 9.8 23 Sudoeste 32 Sudoeste 0 -- -- 92
2019-11-25 08:00:00 9.6 18 Sudoeste 27 Sudoeste 0 -- -- 93
2019-11-25 07:00:00 9.5 22 Sudoeste 32 Sudoeste 0 -- -- 95
2019-11-25 06:00:00 9.3 27 Sudoeste 36 Sudoeste 0 -- -- 96
2019-11-25 05:00:00 9.5 22 Sudoeste 32 Sudoeste 0 -- -- 95
2019-11-25 04:00:00 9.3 21 Sudoeste 37 Sudoeste 0 -- -- 96
2019-11-25 03:00:00 9.4 19 Oeste 42 Sudoeste 0.8 -- -- 96
2019-11-25 02:00:00 9.8 33 Sudoeste 54 Sudoeste 0 -- -- 93
2019-11-25 01:00:00 9.9 36 Sudoeste 50 Sudoeste 0.2 -- -- 91
2019-11-25 00:00:00 9.8 32 Sudoeste 44 Sudoeste 0.4 -- -- 88
2019-11-24 23:00:00 8.5 30 Sudoeste 38 Sudoeste 0 -- -- 91
2019-11-24 22:00:00 8 20 Sudoeste 30 Sudoeste 0 -- -- 90
2019-11-24 21:00:00 7.8 23 Sudoeste 34 Sudoeste 0 -- -- 88
2019-11-24 20:00:00 7.8 24 Sudoeste 32 Sudoeste 0 -- -- 88
2019-11-24 19:00:00 7.9 10 Sudoeste 15 Sudoeste 0 -- -- 85
2019-11-24 18:00:00 8.1 11 Sudoeste 17 Sudoeste 0 -- -- 83
2019-11-24 17:00:00 8.5 12 Oeste 32 Oeste 0 -- -- 80
2019-11-24 16:00:00 8.8 18 Oeste 28 Oeste 0 -- -- 77
2019-11-24 15:00:00 8.7 18 Oeste 30 Oeste 0 -- -- 77
2019-11-24 14:00:00 8.3 17 Oeste 26 Oeste 0 -- -- 76
2019-11-24 13:00:00 8 14 Oeste 27 Oeste 0 -- -- 77
2019-11-24 12:00:00 6.8 14 Oeste 26 Sudoeste 0 -- -- 87
2019-11-24 11:00:00 5.7 17 Oeste 30 Oeste 0 -- -- 91
2019-11-24 10:00:00 4.3 19 Sudoeste 28 Sudoeste 0 -- -- 97
2019-11-24 09:00:00 2.9 15 Oeste 22 Sudoeste 0 -- -- 98
2019-11-24 08:00:00 2.1 13 Oeste 21 Sudoeste 0 -- -- 98
2019-11-24 07:00:00 2.2 15 Oeste 26 Sudoeste 0 -- -- 97
2019-11-24 06:00:00 2.2 16 Sudoeste 23 Sudoeste 0 -- -- 97
2019-11-24 05:00:00 2 15 Sudoeste 25 Oeste 0 -- -- 96
2019-11-24 04:00:00 2.8 18 Sudoeste 25 Sudoeste 0 -- -- 96
2019-11-24 03:00:00 2.9 14 Oeste 23 Oeste 0 -- -- 95
2019-11-24 02:00:00 2.9 15 Oeste 26 Oeste 0 -- -- 95
2019-11-24 01:00:00 3.2 14 Oeste 23 Sudoeste 0 -- -- 94
2019-11-24 00:00:00 3.4 14 Oeste 22 Sudoeste 0 -- -- 93
2019-11-23 23:00:00 3.8 14 Oeste 27 Sudoeste 0 -- -- 91
2019-11-23 22:00:00 4.2 15 Sudoeste 21 Oeste 0 -- -- 88
2019-11-23 21:00:00 4.9 17 Sudoeste 27 Oeste 0 -- -- 85
2019-11-23 20:00:00 5.7 16 Sudoeste 27 Oeste 0 -- -- 82
2019-11-23 19:00:00 7 17 Oeste 35 Oeste 0 -- -- 77
2019-11-23 18:00:00 8.4 21 Oeste 39 Oeste 0 -- -- 71
2019-11-23 17:00:00 9.5 19 Oeste 36 Oeste 0 -- -- 70
2019-11-23 16:00:00 9.9 24 Oeste 44 Oeste 0 -- -- 67
2019-11-23 15:00:00 10.1 21 Oeste 45 Oeste 0 -- -- 66
2019-11-23 14:00:00 9.4 27 Oeste 45 Oeste 0 -- -- 69
2019-11-23 13:00:00 8.8 26 Oeste 49 Oeste 0 -- -- 72
2019-11-23 12:00:00 8 32 Oeste 49 Oeste 0 -- -- 76
2019-11-23 11:00:00 6.4 26 Oeste 43 Oeste 0 -- -- 85
2019-11-23 10:00:00 4.9 25 Oeste 40 Sudoeste 0 -- -- 87
2019-11-23 09:00:00 4.1 23 Oeste 46 Oeste 0 -- -- 85
2019-11-23 08:00:00 3.9 23 Oeste 44 Noroeste 0 -- -- 86
2019-11-23 07:00:00 4.2 26 Oeste 50 Oeste 0 -- -- 86
2019-11-23 06:00:00 4.9 30 Oeste 55 Oeste 0 -- -- 84
2019-11-23 05:00:00 5.4 35 Oeste 57 Oeste 0 -- -- 85
2019-11-23 04:00:00 5.3 31 Oeste 55 Oeste 1.2 -- -- 91
2019-11-23 03:00:00 5.6 29 Oeste 56 Oeste 0.2 -- -- 89
2019-11-23 02:00:00 5.7 33 Oeste 52 Sudoeste 0 -- -- 88
2019-11-23 01:00:00 5.7 32 Oeste 60 Oeste 0 -- -- 87
2019-11-23 00:00:00 7.1 38 Oeste 60 Oeste 0 -- -- 84
2019-11-22 23:00:00 7.3 40 Sudoeste 65 Sudoeste 0 -- -- 84
2019-11-22 22:00:00 8 35 Sudoeste 52 Sudoeste 0 -- -- 86
2019-11-22 21:00:00 7.7 30 Sudoeste 48 Sudoeste 0 -- -- 88
2019-11-22 20:00:00 7.6 27 Sudoeste 42 Sudoeste 0 -- -- 88
2019-11-22 19:00:00 8.2 28 Oeste 61 Oeste 0.8 -- -- 91
2019-11-22 18:00:00 8.9 25 Oeste 51 Oeste 0 -- -- 86
2019-11-22 17:00:00 10.6 28 Oeste 49 Oeste 0.2 -- -- 88
2019-11-22 16:00:00 11.3 30 Oeste 64 Sudoeste 1.4 -- -- 92
2019-11-22 15:00:00 13.3 42 Sudoeste 61 Sudoeste 0.6 -- -- 84
2019-11-22 14:00:00 10.7 30 Sur 50 Sur 0.4 -- -- 90
2019-11-22 13:00:00 10 33 Sur 51 Sur 1.2 -- -- 89
2019-11-22 12:00:00 11 36 Sur 51 Sur 0 -- -- 79
2019-11-22 11:00:00 10.1 33 Sur 45 Sur 0 -- -- 83
2019-11-22 10:00:00 8.4 32 Sur 44 Sur 0 -- -- 86
2019-11-22 09:00:00 7.2 25 Sur 33 Sur 0.2 -- -- 91
2019-11-22 08:00:00 6.6 16 Sur 24 Sur 2 -- -- 94
2019-11-22 07:00:00 6.7 18 Sur 28 Sur 0.6 -- -- 93
2019-11-22 06:00:00 6.4 22 Sur 28 Sur 0 -- -- 93
2019-11-22 05:00:00 6.1 18 Sur 23 Sur 0.2 -- -- 94
2019-11-22 04:00:00 5.9 19 Sur 25 Sur 0 -- -- 93
2019-11-22 03:00:00 5.7 18 Sur 23 Sur 0 -- -- 90
2019-11-22 02:00:00 5.4 17 Sur 21 Sur 0.2 -- -- 92
2019-11-22 01:00:00 5.4 15 Sur 25 Sur 0 -- -- 93
2019-11-22 00:00:00 5.4 17 Sur 24 Sur 0 -- -- 91
2019-11-21 23:00:00 5.2 14 Sur 26 Sur 0 -- -- 92
2019-11-21 22:00:00 5.1 19 Sur 25 Sur 0 -- -- 92
2019-11-21 21:00:00 5.5 13 Sur 17 Sudoeste 0 -- -- 91
2019-11-21 20:00:00 5.5 12 Sur 17 Sur 0 -- -- 91
2019-11-21 19:00:00 6.1 12 Sur 13 Sur 0 -- -- 89
2019-11-21 18:00:00 7.7 4 Sudoeste 10 Sudoeste 0 -- -- 87
2019-11-21 17:00:00 8 9 Sudoeste 22 Sudoeste 0.4 -- -- 87
2019-11-21 16:00:00 7.9 16 Sudoeste 32 Sudoeste 0.4 -- -- 84
2019-11-21 15:00:00 8.6 9 Oeste 23 Noroeste 0 -- -- 78
2019-11-21 14:00:00 9.1 12 Oeste 26 Oeste 0 -- -- 77
2019-11-21 13:00:00 8.2 17 Oeste 27 Oeste 0 -- -- 83
2019-11-21 12:00:00 7.5 14 Oeste 47 Oeste 0.6 -- -- 90
2019-11-21 11:00:00 8 20 Sudoeste 30 Sudoeste 0 -- -- 91
2019-11-21 10:00:00 6.2 15 Sudoeste 24 Sudoeste 0 -- -- 96
2019-11-21 09:00:00 5.2 10 Sudoeste 14 Sudoeste 0.6 -- -- 96
2019-11-21 08:00:00 -- -- -- -- -- -- -- -- --
2019-11-21 07:00:00 -- -- -- -- -- -- -- -- --
2019-11-21 06:00:00 -- -- -- -- -- -- -- -- --
2019-11-21 05:00:00 -- -- -- -- -- -- -- -- --
2019-11-21 04:00:00 -- -- -- -- -- -- -- -- --
2019-11-21 03:00:00 -- -- -- -- -- -- -- -- --
2019-11-21 02:00:00 -- -- -- -- -- -- -- -- --
2019-11-21 01:00:00 -- -- -- -- -- -- -- -- --
2019-11-21 00:00:00 -- -- -- -- -- -- -- -- --
2019-11-20 23:00:00 -- -- -- -- -- -- -- -- --
2019-11-20 22:00:00 -- -- -- -- -- -- -- -- --
2019-11-20 21:00:00 -- -- -- -- -- -- -- -- --
2019-11-20 20:00:00 -- -- -- -- -- -- -- -- --
2019-11-20 19:00:00 5.9 10 Sur 16 Sudoeste 0 -- -- 95
2019-11-20 18:00:00 6.2 10 Sur 16 Sur 0 -- -- 94
2019-11-20 17:00:00 6.2 11 Sur 15 Sur 0.8 -- -- 94
2019-11-20 16:00:00 6.4 10 Sur 16 Sur 2 -- -- 93
2019-11-20 15:00:00 6.8 10 Sudoeste 17 Sur 0.2 -- -- 92
2019-11-20 14:00:00 6.3 10 Sur 14 Sur 1 -- -- 92
2019-11-20 13:00:00 5.9 12 Sudoeste 15 Sur 0.8 -- -- 94
2019-11-20 12:00:00 5.8 10 Sur 14 Sur 0.2 -- -- 94
2019-11-20 11:00:00 5.4 8 Sur 12 Sur 0 -- -- 96
2019-11-20 10:00:00 4.7 6 Sudoeste 12 Sudoeste 0.2 -- -- 95
2019-11-20 09:00:00 4.3 8 Sudoeste 14 Sur 0 -- -- 93
2019-11-20 08:00:00 3.5 6 Sudeste 8 Sudeste 0 -- -- 93
2019-11-20 07:00:00 3.4 8 Sudeste 10 Sudeste 0 -- -- 92
2019-11-20 06:00:00 3.5 9 Sudeste 12 Sur 0 -- -- 90
2019-11-20 05:00:00 3 8 Sudeste 10 Este 0 -- -- 91
2019-11-20 04:00:00 3.3 4 Sur 9 Sudoeste 0 -- -- 89
2019-11-20 03:00:00 3.6 9 Sudoeste 13 Sudoeste 0 -- -- 87
2019-11-20 02:00:00 4.4 9 Sur 13 Sur 0 -- -- 86
2019-11-20 01:00:00 4.4 10 Sur 14 Sur 0 -- -- 87
2019-11-20 00:00:00 4.6 11 Sur 15 Sur 0 -- -- 87
2019-11-19 23:00:00 4.6 9 Sur 13 Sur 0 -- -- 86
2019-11-19 22:00:00 5 12 Sur 14 Sur 0 -- -- 81
2019-11-19 21:00:00 5.1 6 Sudeste 8 Sur 0 -- -- 82
2019-11-19 20:00:00 4.7 5 Sur 7 Sur 0 -- -- 85
2019-11-19 19:00:00 5.4 4 Sur 5 Sur 0 -- -- 82
2019-11-19 18:00:00 6.6 2 Sur -- -- 0 -- -- 79
2019-11-19 17:00:00 7.7 2 Oeste 7 Oeste 0 -- -- 73
2019-11-19 16:00:00 8.1 4 Oeste 12 Oeste 0 -- -- 73
2019-11-19 15:00:00 8.2 6 Oeste 12 Oeste 0 -- -- 72
2019-11-19 14:00:00 8 4 Sudoeste 13 Oeste 0 -- -- 74
2019-11-19 13:00:00 7.2 6 Oeste 11 Oeste 0 -- -- 78
2019-11-19 12:00:00 5.5 3 Sudoeste 12 Sur 0 -- -- 85
2019-11-19 11:00:00 3 9 Sur 14 Sur 0 -- -- 94
2019-11-19 10:00:00 1 7 Sur 10 Sur 0 -- -- 95
2019-11-19 09:00:00 0.2 9 Sur 13 Sur 0 -- -- 95
2019-11-19 08:00:00 -0.9 9 Sur 11 Sur 0 -- -- 95
2019-11-19 07:00:00 -0.7 8 Sur 11 Sur 0 -- -- 95
2019-11-19 06:00:00 -0.5 7 Sur 12 Sur 0 -- -- 95
2019-11-19 05:00:00 0.5 9 Sur 12 Sur 0 -- -- 96
2019-11-19 04:00:00 0.4 6 Sur 9 Sur 0 -- -- 95
2019-11-19 03:00:00 1 5 Sudeste 12 Sudeste 0 -- -- 96
2019-11-19 02:00:00 1.1 9 Sudeste 17 Sudeste 0 -- -- 96
2019-11-19 01:00:00 0.9 10 Sudeste 14 Este 0 -- -- 95
2019-11-19 00:00:00 2.4 5 Sudeste 8 Sudeste 0 -- -- 91
2019-11-18 23:00:00 3 9 Sudeste 14 Sudeste 0 -- -- 91
2019-11-18 22:00:00 3.2 8 Sudeste 10 Este 0 -- -- 91
2019-11-18 21:00:00 3.6 6 Este 11 Sur 0 -- -- 88
2019-11-18 20:00:00 4.3 8 Sur 10 Sur 0 -- -- 86
2019-11-18 19:00:00 4.5 10 Sur 12 Sudoeste 0 -- -- 85
2019-11-18 18:00:00 6.5 9 Sudoeste 11 Sudoeste 0 -- -- 80
2019-11-18 17:00:00 8.2 0 Calma 7 Sur 0 -- -- 70
2019-11-18 16:00:00 8.5 3 Sudoeste 10 Este 0 -- -- 69
2019-11-18 15:00:00 7.8 3 Este 9 Nordeste 0 -- -- 70
2019-11-18 14:00:00 7.5 4 Norte 12 Norte 0 -- -- 71
2019-11-18 13:00:00 7.2 4 Noroeste 10 Norte 0 -- -- 74
2019-11-18 12:00:00 5.8 2 Oeste 6 Noroeste 0 -- -- 83
2019-11-18 11:00:00 3.6 4 Oeste 11 Oeste 0 -- -- 93
2019-11-18 10:00:00 1.5 5 Oeste 11 Sudoeste 0 -- -- 98
2019-11-18 09:00:00 -0.1 7 Sudoeste 10 Oeste 0 -- -- 98
2019-11-18 08:00:00 -0.4 6 Sudoeste 10 Sudoeste 0 -- -- 98
2019-11-18 07:00:00 0 6 Oeste 10 Oeste 0 -- -- 97
2019-11-18 06:00:00 -0.1 7 Sudoeste 11 Sudoeste 0 -- -- 97
2019-11-18 05:00:00 0.4 5 Sudoeste 10 Oeste 0 -- -- 96
2019-11-18 04:00:00 0.3 4 Sudoeste 13 Oeste 0 -- -- 96
2019-11-18 03:00:00 1.2 9 Oeste 16 Oeste 0 -- -- 95
2019-11-18 02:00:00 2.3 12 Oeste 19 Oeste 0 -- -- 93
2019-11-18 01:00:00 3 9 Oeste 17 Oeste 0 -- -- 93
2019-11-18 00:00:00 2.3 5 Sudoeste 14 Sudoeste 0 -- -- 93
2019-11-17 23:00:00 2.7 9 Sudoeste 17 Sudoeste 0 -- -- 93
2019-11-17 22:00:00 3.1 8 Oeste 13 Oeste 0 -- -- 90
2019-11-17 21:00:00 4.7 4 Oeste 15 Oeste 0 -- -- 89
2019-11-17 20:00:00 6.7 12 Noroeste 24 Noroeste 0 -- -- 86
2019-11-17 19:00:00 7.2 11 Oeste 22 Oeste 0 -- -- 91
2019-11-17 18:00:00 7.4 9 Oeste 32 Oeste 0 -- -- 89
2019-11-17 17:00:00 9 19 Oeste 36 Oeste 0 -- -- 83
2019-11-17 16:00:00 10.2 24 Oeste 40 Oeste 0 -- -- 84
2019-11-17 15:00:00 8.9 22 Oeste 40 Oeste 0.2 -- -- 96
2019-11-17 14:00:00 7.9 17 Oeste 39 Sudoeste 0 -- -- 97
2019-11-17 13:00:00 7.3 21 Oeste 37 Oeste 0.4 -- -- 97
2019-11-17 12:00:00 6.3 19 Oeste 31 Oeste 2 -- -- 96
2019-11-17 11:00:00 5.7 21 Sudoeste 35 Sudoeste 0.6 -- -- 94
2019-11-17 10:00:00 5.6 25 Sudoeste 34 Sudoeste 0 -- -- 92
2019-11-17 09:00:00 4.3 16 Sudoeste 23 Sudoeste 0 -- -- 93
2019-11-17 08:00:00 3.6 15 Sudoeste 23 Sudoeste 0.2 -- -- 94
2019-11-17 07:00:00 4 14 Sudoeste 30 Sudoeste 0 -- -- 87
2019-11-17 06:00:00 3.7 19 Sudoeste 25 Sudoeste 0 -- -- 87
2019-11-17 05:00:00 3.6 19 Sudoeste 27 Sudoeste 0 -- -- 87
2019-11-17 04:00:00 3.2 13 Sudoeste 25 Sudoeste 0 -- -- 86
2019-11-17 03:00:00 2.7 14 Oeste 24 Oeste 0 -- -- 87
2019-11-17 02:00:00 2.7 16 Oeste 25 Sudoeste 0 -- -- 86
2019-11-17 01:00:00 2.8 12 Oeste 22 Sudoeste 0 -- -- 86
2019-11-17 00:00:00 2.8 11 Sudoeste 18 Sudoeste 0 -- -- 88
2019-11-16 23:00:00 2.3 15 Sudoeste 19 Sudoeste 0 -- -- 88
2019-11-16 22:00:00 1.8 11 Sudoeste 15 Oeste 0 -- -- 86
2019-11-16 21:00:00 2.2 8 Oeste 19 Oeste 0 -- -- 84
2019-11-16 20:00:00 3.7 12 Oeste 23 Oeste 0 -- -- 78
2019-11-16 19:00:00 4.3 14 Oeste 24 Oeste 0 -- -- 77
2019-11-16 18:00:00 5.6 12 Sudoeste 32 Sudoeste 0 -- -- 79
2019-11-16 17:00:00 6.9 24 Sudoeste 33 Sudoeste 0 -- -- 72
2019-11-16 16:00:00 7.2 20 Sudoeste 31 Sudoeste 0 -- -- 71
2019-11-16 15:00:00 7.8 19 Oeste 30 Oeste 0 -- -- 67
2019-11-16 14:00:00 6.9 16 Oeste 27 Sudoeste 0 -- -- 71
2019-11-16 13:00:00 6.2 13 Oeste 22 Oeste 0 -- -- 73
2019-11-16 12:00:00 4.7 15 Sudoeste 22 Sudoeste 0 -- -- 77
2019-11-16 11:00:00 3.1 15 Sudoeste 26 Sudoeste 0 -- -- 85
2019-11-16 10:00:00 1.1 14 Sudoeste 18 Sudoeste 0 -- -- 93
2019-11-16 09:00:00 -1.1 9 Sudoeste 15 Sudoeste 0 -- -- 96
2019-11-16 08:00:00 -1.8 10 Sudoeste 16 Sudoeste 0 -- -- 95
2019-11-16 07:00:00 -1.7 11 Sudoeste 14 Sudoeste 0 -- -- 95
2019-11-16 06:00:00 -1.4 8 Sudoeste 13 Sudoeste 0 -- -- 95
2019-11-16 05:00:00 -1.1 6 Sudoeste 11 Oeste 0 -- -- 94
2019-11-16 04:00:00 -1.2 8 Sudoeste 10 Sudoeste 0 -- -- 94
2019-11-16 03:00:00 -0.7 5 Sudoeste 10 Oeste 0 -- -- 92
2019-11-16 02:00:00 0 5 Sudoeste 9 Oeste 0 -- -- 91
2019-11-16 01:00:00 0.6 3 Oeste 12 Noroeste 0 -- -- 90
2019-11-16 00:00:00 1.6 6 Noroeste 15 Noroeste 0 -- -- 88
2019-11-15 23:00:00 2.2 6 Oeste 15 Oeste 0 -- -- 86
2019-11-15 22:00:00 3.4 9 Oeste 28 Noroeste 0 -- -- 80
2019-11-15 21:00:00 4.1 8 Oeste 26 Noroeste 0 -- -- 77
2019-11-15 20:00:00 4.5 13 Noroeste 23 Noroeste 0 -- -- 72
2019-11-15 19:00:00 4.8 13 Noroeste 27 Noroeste 0 -- -- 69
2019-11-15 18:00:00 5.9 15 Noroeste 29 Noroeste 0 -- -- 64
2019-11-15 17:00:00 7 11 Noroeste 39 Noroeste 0 -- -- 64
2019-11-15 16:00:00 7.6 21 Noroeste 40 Noroeste 0 -- -- 57
2019-11-15 15:00:00 7.1 17 Oeste 32 Noroeste 0 -- -- 63
2019-11-15 14:00:00 7.1 22 Noroeste 39 Noroeste 0 -- -- 64
2019-11-15 13:00:00 6.3 22 Noroeste 36 Noroeste 0 -- -- 70
2019-11-15 12:00:00 5.9 16 Noroeste 36 Oeste 0 -- -- 73
2019-11-15 11:00:00 4.8 13 Oeste 27 Oeste 0 -- -- 80
2019-11-15 10:00:00 2.8 14 Oeste 24 Oeste 0 -- -- 91
2019-11-15 09:00:00 1.1 9 Oeste 19 Sudoeste 0 -- -- 95
2019-11-15 08:00:00 0.9 9 Oeste 17 Oeste 0 -- -- 94
2019-11-15 07:00:00 0.9 10 Oeste 22 Oeste 0 -- -- 94
2019-11-15 06:00:00 1.4 13 Oeste 26 Oeste 0 -- -- 93
2019-11-15 05:00:00 2.3 15 Oeste 26 Oeste 0 -- -- 92
2019-11-15 04:00:00 2.6 13 Oeste 25 Oeste 0 -- -- 94
2019-11-15 03:00:00 2.4 15 Oeste 36 Oeste 0.2 -- -- 95
2019-11-15 02:00:00 2.7 22 Oeste 35 Oeste 0 -- -- 92
2019-11-15 01:00:00 2.9 16 Oeste 41 Noroeste 0 -- -- 91
2019-11-15 00:00:00 3.3 19 Oeste 34 Noroeste 0 -- -- 89